Time;durP1;ratioP1;P1;durP2;ratioP2;P2;SDS_P1;SDS_P2;PMS_P1;PMS_P2;Temp;Humidity;BMP_temperature;BMP_pressure;BME280_temperature;BME280_humidity;BME280_pressure;Samples;Min_cycle;Max_cycle;Signal;HPM_P1;HPM_P2
2022/09/17 00:01:05;;;;;;;23.58;4.53;;;;;;;23.09;64.39;99832.81;4980574;28;20484;-81
2022/09/17 00:03:35;;;;;;;22.75;4.50;;;;;;;23.26;64.26;99838.34;4983854;28;20053;-81
2022/09/17 00:06:05;;;;;;;24.80;4.22;;;;;;;23.11;64.69;99814.47;4986906;28;20404;-82
2022/09/17 00:08:34;;;;;;;19.08;3.85;;;;;;;23.24;64.51;99819.59;5002414;28;20057;-80
2022/09/17 00:11:13;;;;;;;22.23;3.67;;;;;;;22.53;65.37;99736.84;5002551;28;20064;-82
2022/09/17 00:13:43;;;;;;;19.88;3.58;;;;;;;22.61;65.49;99758.94;4989638;28;20052;-82
2022/09/17 00:16:10;;;;;;;21.45;3.63;;;;;;;22.89;65.61;99779.03;4986694;28;20686;-82
2022/09/17 00:18:40;;;;;;;30.02;3.95;;;;;;;22.88;65.69;99787.38;4984820;28;20053;-82
2022/09/17 00:21:16;;;;;;;15.52;4.18;;;;;;;22.99;66.12;99808.25;4982022;28;20057;-82
2022/09/17 00:23:43;;;;;;;20.60;4.13;;;;;;;22.71;65.96;99766.47;4982564;28;20604;-81
2022/09/17 00:26:11;;;;;;;13.95;3.30;;;;;;;22.95;65.84;99798.91;4981862;28;20053;-81
2022/09/17 00:28:38;;;;;;;24.42;4.40;;;;;;;22.77;65.65;99752.00;4981623;28;20476;-80
2022/09/17 00:31:08;;;;;;;17.50;3.65;;;;;;;23.19;65.67;99805.16;4981891;28;20077;-82
2022/09/17 00:33:36;;;;;;;23.42;4.28;;;;;;;22.63;65.32;99707.31;4982028;28;20049;-82
2022/09/17 00:36:04;;;;;;;22.67;4.75;;;;;;;23.12;65.57;99780.91;4999210;28;20575;-80
2022/09/17 00:38:32;;;;;;;20.55;3.58;;;;;;;23.39;65.38;99794.72;4964081;28;20075;-81
2022/09/17 00:41:00;;;;;;;22.38;3.67;;;;;;;22.98;65.87;99764.09;4979930;28;20050;-82
2022/09/17 00:43:35;;;;;;;26.00;4.53;;;;;;;23.13;66.17;99792.56;4961133;28;20139;-81
2022/09/17 00:46:04;;;;;;;30.88;3.95;;;;;;;23.13;65.95;99798.81;4962205;28;20054;-80
2022/09/17 00:48:31;;;;;;;21.77;4.32;;;;;;;22.46;66.20;99704.50;4984350;28;20047;-81
2022/09/17 00:51:00;;;;;;;18.02;3.33;;;;;;;23.20;66.17;99801.38;4980434;28;20060;-80
2022/09/17 00:53:27;;;;;;;14.82;3.50;;;;;;;23.10;66.14;99796.56;4999226;28;20610;-80
2022/09/17 00:56:01;;;;;;;21.33;3.50;;;;;;;23.04;66.96;99803.75;4980581;28;20049;-79
2022/09/17 00:58:31;;;;;;;17.33;3.60;;;;;;;22.93;66.38;99777.50;4981708;28;20081;-82
2022/09/17 01:00:58;;;;;;;15.65;3.95;;;;;;;23.10;66.38;99812.81;4981411;28;20202;-81
2022/09/17 01:03:25;;;;;;;21.33;3.20;;;;;;;22.93;66.05;99790.22;4989057;28;20309;-83
2022/09/17 01:06:29;;;;;;;22.92;4.13;;;;;;;23.01;66.94;99828.59;5006745;28;20391;-83
2022/09/17 01:09:14;;;;;;;14.55;3.53;;;;;;;22.97;66.62;99813.03;4965002;28;20652;-81
2022/09/17 01:11:46;;;;;;;25.27;4.03;;;;;;;;;;4988489;28;20045;-83
2022/09/17 01:14:22;;;;;;;21.80;4.15;;;;;;;23.11;65.97;99817.16;4988338;28;20408;-82
2022/09/17 01:17:16;;;;;;;22.58;3.83;;;;;;;23.05;66.40;99818.09;4988202;28;20472;-83
2022/09/17 01:20:21;;;;;;;23.25;3.55;;;;;;;22.94;66.54;99829.75;4988697;28;20049;-83
2022/09/17 01:23:14;;;;;;;23.83;3.90;;;;;;;22.86;66.81;99839.03;4988712;28;20060;-82
2022/09/17 01:26:16;;;;;;;24.33;3.35;;;;;;;22.59;66.83;99798.09;5006358;28;20545;-83
2022/09/17 01:29:22;;;;;;;17.92;3.15;;;;;;;22.95;66.42;99842.22;4988982;28;20056;-82
2022/09/17 01:31:58;;;;;;;15.77;3.15;;;;;;;22.80;66.26;99835.41;4958980;28;20046;-81
2022/09/17 01:34:52;;;;;;;25.33;3.60;;;;;;;22.73;66.32;99818.44;4989976;28;20525;-83
2022/09/17 01:37:26;;;;;;;16.15;3.22;;;;;;;22.76;66.53;99838.81;4988023;28;20144;-82
2022/09/17 01:40:24;;;;;;;15.15;3.33;;;;;;;22.49;66.33;99787.03;5005431;28;20051;-83
2022/09/17 01:42:54;;;;;;;14.13;3.17;;;;;;;22.85;66.27;99852.81;5004004;28;20041;-83
2022/09/17 01:45:44;;;;;;;28.90;3.22;;;;;;;22.82;66.01;99854.13;5003927;28;20413;-82
2022/09/17 01:48:19;;;;;;;21.42;3.58;;;;;;;22.48;66.43;99807.06;5005406;28;20052;-84
2022/09/17 01:50:49;;;;;;;10.98;2.80;;;;;;;21.89;66.13;99707.72;4987566;28;20341;-81
2022/09/17 01:53:21;;;;;;;19.27;2.88;;;;;;;22.79;66.28;99851.84;4999448;28;20076;-82
2022/09/17 01:55:52;;;;;;;13.95;3.50;;;;;;;22.29;66.23;99776.56;5006611;28;20111;-82
2022/09/17 01:58:27;;;;;;;17.00;3.25;;;;;;;22.61;66.12;99825.75;5023531;28;20076;-82
2022/09/17 02:01:00;;;;;;;15.90;2.80;;;;;;;22.13;66.02;99745.59;5007063;28;20068;-81
2022/09/17 02:03:39;;;;;;;12.80;2.38;;;;;;;22.80;66.04;99851.63;5006863;28;20148;-82
2022/09/17 02:06:19;;;;;;;19.90;3.03;;;;;;;22.46;66.24;99795.63;5007376;28;20053;-83
2022/09/17 02:08:56;;;;;;;29.75;3.20;;;;;;;22.77;66.46;99864.81;5006778;28;20091;-82
2022/09/17 02:11:23;;;;;;;13.82;2.70;;;;;;;22.79;66.41;99860.81;5006802;28;20417;-80
2022/09/17 02:14:02;;;;;;;22.23;3.53;;;;;;;22.80;66.15;99856.22;5006618;28;20475;-82
2022/09/17 02:16:32;;;;;;;19.52;2.97;;;;;;;22.91;66.01;99847.25;5006734;28;20088;-82
2022/09/17 02:19:12;;;;;;;14.65;3.05;;;;;;;22.65;65.46;99793.63;5007044;28;20076;-81
2022/09/17 02:21:45;;;;;;;17.00;3.30;;;;;;;22.86;65.54;99822.78;5006946;28;20054;-82
2022/09/17 02:24:25;;;;;;;15.52;2.75;;;;;;;22.77;65.60;99811.53;5006080;28;20057;-81
2022/09/17 02:27:02;;;;;;;11.95;2.47;;;;;;;22.91;65.13;99820.19;5006783;28;20067;-82
2022/09/17 02:29:36;;;;;;;23.40;3.60;;;;;;;22.76;65.07;99809.84;5006252;28;20641;-83
2022/09/17 02:32:03;;;;;;;18.65;3.38;;;;;;;22.68;65.50;99804.81;5006774;28;20493;-80
2022/09/17 02:34:31;;;;;;;15.73;2.38;;;;;;;22.69;64.34;99819.97;5006537;28;20227;-81
2022/09/17 02:36:58;;;;;;;11.48;2.60;;;;;;;22.38;64.41;99796.81;5006630;28;20058;-81
2022/09/17 02:39:26;;;;;;;13.80;2.30;;;;;;;22.31;64.04;99793.41;5006553;28;20045;-81
2022/09/17 02:42:05;;;;;;;8.82;1.85;;;;;;;22.17;64.44;99823.28;5006524;28;20053;-81
2022/09/17 02:45:04;;;;;;;9.30;1.42;;;;;;;22.29;64.52;99853.09;5023825;28;20059;-81
2022/09/17 02:47:59;;;;;;;10.60;1.75;;;;;;;22.23;64.31;99828.84;5007622;28;20136;-82
2022/09/17 02:50:55;;;;;;;6.15;1.38;;;;;;;22.37;63.63;99820.31;4988044;28;20053;-80
2022/09/17 02:53:30;;;;;;;4.32;1.10;;;;;;;22.17;64.07;99826.00;4987623;28;20054;-79
2022/09/17 02:56:26;;;;;;;11.52;1.88;;;;;;;21.58;64.55;99745.81;4987462;28;20066;-80
2022/09/17 02:59:01;;;;;;;6.15;1.67;;;;;;;22.01;64.36;99798.81;4987956;28;20072;-80
2022/09/17 03:01:34;;;;;;;9.23;1.88;;;;;;;21.84;64.45;99785.94;5004688;28;20695;-80
2022/09/17 03:04:04;;;;;;;10.40;1.50;;;;;;;21.37;64.40;99734.44;5005229;28;20161;-82
2022/09/17 03:06:31;;;;;;;7.70;1.58;;;;;;;21.60;65.01;99801.25;4987253;28;20052;-80
2022/09/17 03:08:57;;;;;;;6.72;1.38;;;;;;;21.46;64.91;99781.72;4987414;28;20136;-82
2022/09/17 03:11:24;;;;;;;5.15;1.10;;;;;;;21.59;64.88;99799.59;5004945;28;20050;-81
2022/09/17 03:13:51;;;;;;;8.70;2.15;;;;;;;21.44;65.05;99775.72;4987016;28;20193;-82
2022/09/17 03:16:17;;;;;;;4.47;2.17;;;;;;;21.47;64.44;99777.13;5004956;28;20464;-80
2022/09/17 03:18:44;;;;;;;10.20;1.55;;;;;;;21.40;64.20;99766.41;5004769;28;20045;-79
2022/09/17 03:21:11;;;;;;;5.25;1.02;;;;;;;21.45;63.93;99790.84;4987264;28;20054;-81
2022/09/17 03:23:38;;;;;;;7.78;1.52;;;;;;;21.29;64.08;99740.16;4987293;28;20524;-80
2022/09/17 03:26:05;;;;;;;3.35;1.15;;;;;;;21.63;63.26;99764.88;4987326;28;20054;-79
2022/09/17 03:28:31;;;;;;;5.22;0.98;;;;;;;21.71;63.10;99772.66;4987401;28;20297;-79
2022/09/17 03:30:58;;;;;;;4.75;1.33;;;;;;;21.45;62.84;99720.63;4987492;28;20050;-81
2022/09/17 03:33:25;;;;;;;7.25;1.10;;;;;;;21.62;62.90;99768.63;4987518;28;20053;-79
2022/09/17 03:35:51;;;;;;;7.30;1.20;;;;;;;21.55;63.14;99768.69;4990673;28;20054;-80
2022/09/17 03:38:20;;;;;;;8.52;1.58;;;;;;;21.22;63.10;99731.34;5023379;28;20046;-80
2022/09/17 03:41:01;;;;;;;7.95;1.77;;;;;;;21.21;63.56;99751.25;5031652;28;20147;-80
2022/09/17 03:43:28;;;;;;;9.52;1.73;;;;;;;21.36;63.80;99781.41;5011963;28;20045;-79
2022/09/17 03:45:54;;;;;;;8.95;1.40;;;;;;;21.34;63.53;99773.53;5027363;28;20103;-79
2022/09/17 03:48:22;;;;;;;6.00;1.25;;;;;;;21.35;63.62;99771.63;5010573;28;20061;-78
2022/09/17 03:50:48;;;;;;;6.93;1.20;;;;;;;21.35;62.98;99779.72;5010082;28;20059;-80
2022/09/17 03:53:16;;;;;;;7.97;1.60;;;;;;;21.00;62.99;99715.59;5028111;28;20064;-79
2022/09/17 03:55:43;;;;;;;8.15;1.23;;;;;;;21.31;62.65;99746.97;5027933;28;20060;-81
2022/09/17 03:58:09;;;;;;;4.00;0.68;;;;;;;21.13;62.88;99739.72;5009877;28;20061;-81
2022/09/17 04:00:37;;;;;;;5.57;1.25;;;;;;;21.37;62.89;99772.25;5010496;28;20136;-81
2022/09/17 04:03:04;;;;;;;8.80;1.40;;;;;;;21.27;62.85;99758.47;5027171;28;20053;-79
2022/09/17 04:05:31;;;;;;;6.38;1.50;;;;;;;21.48;62.68;99778.75;5027903;28;20060;-80
2022/09/17 04:07:58;;;;;;;15.18;1.70;;;;;;;21.60;62.10;99773.41;5027292;28;20057;-78
2022/09/17 04:10:25;;;;;;;8.60;1.67;;;;;;;21.56;62.07;99762.25;5010135;28;20515;-80
2022/09/17 04:12:51;;;;;;;9.38;1.75;;;;;;;21.32;61.83;99715.41;5009433;28;20138;-80
2022/09/17 04:15:18;;;;;;;13.77;2.10;;;;;;;21.63;61.84;99762.19;5009809;28;20283;-79
2022/09/17 04:17:44;;;;;;;11.38;1.85;;;;;;;21.53;62.25;99744.63;5009463;28;20046;-80
2022/09/17 04:20:11;;;;;;;16.08;2.15;;;;;;;21.47;62.18;99734.75;5009723;28;20060;-79
2022/09/17 04:22:37;;;;;;;14.15;1.95;;;;;;;21.51;61.98;99722.44;5009105;28;20420;-78
2022/09/17 04:25:04;;;;;;;16.35;2.38;;;;;;;21.48;61.72;99730.16;5009311;28;20049;-82
2022/09/17 04:27:31;;;;;;;11.25;2.13;;;;;;;21.47;62.33;99742.84;5008973;28;20439;-82
2022/09/17 04:29:57;;;;;;;10.02;1.73;;;;;;;21.51;62.17;99746.75;5016344;28;20049;-80
2022/09/17 04:32:24;;;;;;;7.05;1.92;;;;;;;21.48;62.36;99751.75;5025787;28;20049;-81
2022/09/17 04:34:50;;;;;;;12.38;2.13;;;;;;;21.40;62.36;99742.09;5018190;28;20045;-81
2022/09/17 04:37:18;;;;;;;11.52;2.13;;;;;;;21.21;62.70;99708.06;5014489;28;20041;-79
2022/09/17 04:39:45;;;;;;;15.77;2.15;;;;;;;21.24;62.37;99702.22;5011073;28;20111;-81
2022/09/17 04:42:11;;;;;;;18.25;2.75;;;;;;;21.60;62.08;99749.94;5009482;28;20103;-78
2022/09/17 04:44:38;;;;;;;12.35;2.20;;;;;;;21.41;62.08;99722.16;5027033;28;20133;-80
2022/09/17 04:47:05;;;;;;;10.30;2.03;;;;;;;21.31;62.04;99735.34;5008168;28;20049;-79
2022/09/17 04:49:31;;;;;;;10.52;2.05;;;;;;;21.47;62.35;99766.31;5026597;28;20053;-79
2022/09/17 04:51:58;;;;;;;21.85;2.45;;;;;;;21.51;62.61;99762.13;5008995;28;20051;-80
2022/09/17 04:54:25;;;;;;;11.20;2.00;;;;;;;21.44;62.52;99762.22;5008738;28;20493;-80
2022/09/17 04:56:51;;;;;;;20.23;2.40;;;;;;;21.50;62.63;99772.06;5025920;28;20559;-79
2022/09/17 04:59:18;;;;;;;15.63;2.53;;;;;;;21.35;62.47;99753.56;5008626;28;20064;-80
2022/09/17 05:01:45;;;;;;;15.10;2.67;;;;;;;21.48;62.64;99779.59;5008382;28;20115;-82
2022/09/17 05:04:11;;;;;;;13.93;2.42;;;;;;;21.34;62.32;99761.91;5009119;28;20056;-80
2022/09/17 05:06:38;;;;;;;18.83;2.28;;;;;;;21.48;62.26;99793.13;5026506;28;20494;-80
2022/09/17 05:09:04;;;;;;;14.52;2.63;;;;;;;21.16;62.68;99759.22;5024629;28;20564;-81
2022/09/17 05:11:31;;;;;;;14.93;2.50;;;;;;;21.38;62.81;99795.47;5008039;28;20239;-80
2022/09/17 05:13:58;;;;;;;16.38;2.85;;;;;;;21.21;62.38;99767.44;5008297;28;20049;-80
2022/09/17 05:16:24;;;;;;;19.27;2.83;;;;;;;21.28;62.55;99789.78;5026375;28;20358;-80
2022/09/17 05:18:51;;;;;;;20.42;3.45;;;;;;;21.34;62.81;99821.28;5008082;28;20053;-79
2022/09/17 05:21:19;;;;;;;22.90;4.18;;;;;;;21.33;62.65;99828.53;5008396;28;20063;-79
2022/09/17 05:23:46;;;;;;;23.30;3.22;;;;;;;21.03;63.14;99804.19;5008262;28;20050;-80
2022/09/17 05:26:13;;;;;;;30.88;4.20;;;;;;;20.96;63.09;99798.03;5008387;28;20079;-79
2022/09/17 05:28:40;;;;;;;25.45;3.80;;;;;;;20.63;63.33;99753.38;5008755;28;20055;-79
2022/09/17 05:31:07;;;;;;;23.70;4.05;;;;;;;21.10;63.84;99842.72;5008120;28;20103;-82
2022/09/17 05:33:34;;;;;;;23.60;3.83;;;;;;;21.00;63.55;99837.03;5008358;28;20059;-81
2022/09/17 05:36:01;;;;;;;13.75;2.70;;;;;;;21.05;63.39;99834.47;5007821;28;20481;-83
2022/09/17 05:38:27;;;;;;;20.73;2.80;;;;;;;20.84;63.62;99821.41;5005579;28;20042;-82
2022/09/17 05:40:54;;;;;;;30.40;4.13;;;;;;;20.84;63.98;99845.69;4990830;28;20139;-79
2022/09/17 05:43:21;;;;;;;20.38;3.33;;;;;;;20.95;64.64;99866.56;4991841;28;20286;-80
2022/09/17 05:45:47;;;;;;;13.63;2.60;;;;;;;20.89;64.93;99867.44;5032982;28;20080;-81
2022/09/17 05:48:14;;;;;;;14.48;2.58;;;;;;;20.79;65.53;99872.50;5007852;28;20063;-81
2022/09/17 05:50:41;;;;;;;14.20;2.20;;;;;;;20.48;66.33;99848.03;4998616;28;20062;-81
2022/09/17 05:53:26;;;;;;;9.48;1.70;;;;;;;20.67;65.92;99838.16;5007384;28;20053;-77
2022/09/17 05:55:57;;;;;;;7.38;1.77;;;;;;;20.49;65.34;99856.97;5007059;28;20053;-80
2022/09/17 05:58:24;;;;;;;13.35;2.20;;;;;;;20.20;66.07;99853.84;4990347;28;20067;-80
2022/09/17 06:00:51;;;;;;;7.35;1.70;;;;;;;19.64;66.61;99777.28;4990250;28;20497;-82
2022/09/17 06:03:19;;;;;;;7.78;1.80;;;;;;;19.92;67.35;99883.03;5005566;28;20065;-81
2022/09/17 06:05:54;;;;;;;12.15;1.20;;;;;;;19.61;67.22;99863.03;5023895;28;20060;-78
2022/09/17 06:08:21;;;;;;;6.65;1.27;;;;;;;19.70;68.08;99880.63;5007136;28;20098;-76
2022/09/17 06:10:48;;;;;;;4.35;0.57;;;;;;;19.37;67.82;99865.41;5007472;28;20385;-75
2022/09/17 06:13:19;;;;;;;3.72;1.20;;;;;;;19.52;67.76;99893.94;5007861;28;20053;-81
2022/09/17 06:15:50;;;;;;;5.47;0.75;;;;;;;19.20;68.32;99880.38;5005447;28;20477;-74
2022/09/17 06:18:17;;;;;;;2.78;0.70;;;;;;;18.82;69.31;99845.25;5007428;28;20069;-81
2022/09/17 06:21:00;;;;;;;3.13;0.90;;;;;;;18.99;68.57;99889.50;5007037;28;20045;-81
2022/09/17 06:23:34;;;;;;;2.35;0.60;;;;;;;18.77;68.43;99891.59;5007246;28;20057;-77
2022/09/17 06:26:01;;;;;;;3.15;0.60;;;;;;;18.53;69.38;99866.94;4991725;28;20173;-75
2022/09/17 06:28:28;;;;;;;3.17;0.85;;;;;;;18.48;69.01;99882.03;4987259;28;20133;-79
2022/09/17 06:31:03;;;;;;;15.00;1.33;;;;;;;17.79;70.22;99786.41;4987985;28;20228;-79
2022/09/17 06:33:31;;;;;;;2.63;0.80;;;;;;;18.45;69.82;99894.03;5019486;28;20520;-81
2022/09/17 06:36:00;;;;;;;2.35;0.77;;;;;;;18.09;69.12;99844.16;5002523;28;20055;-80
2022/09/17 06:38:32;;;;;;;4.97;0.80;;;;;;;18.34;68.94;99859.69;5007471;28;20045;-81
2022/09/17 06:41:01;;;;;;;3.90;1.17;;;;;;;18.28;69.45;99887.38;5003938;28;20037;-80
2022/09/17 06:43:29;;;;;;;4.50;0.93;;;;;;;18.14;69.24;99865.84;5008430;28;20104;-78
2022/09/17 06:46:00;;;;;;;4.57;0.77;;;;;;;18.12;68.50;99873.28;5026822;28;20068;-79
2022/09/17 06:48:28;;;;;;;5.68;1.15;;;;;;;18.11;66.91;99877.00;5003725;28;20045;-75
2022/09/17 06:51:01;;;;;;;4.63;1.25;;;;;;;18.02;66.57;99829.06;5006420;28;20057;-75
2022/09/17 06:53:28;;;;;;;4.97;1.20;;;;;;;18.02;65.49;99870.16;5006107;28;20339;-82
2022/09/17 06:55:59;;;;;;;10.60;1.52;;;;;;;17.87;67.11;99912.47;4989040;28;20054;-82
2022/09/17 06:58:33;;;;;;;10.32;1.50;;;;;;;17.69;69.05;99929.94;4989120;28;20513;-81
2022/09/17 07:01:00;;;;;;;4.35;1.30;;;;;;;17.36;70.22;99931.59;4988670;28;20046;-77
2022/09/17 07:03:29;;;;;;;4.68;0.80;;;;;;;17.27;70.02;99971.97;4988383;28;20065;-84
2022/09/17 07:05:56;;;;;;;9.82;1.75;;;;;;;17.27;70.58;99960.41;5006401;28;20136;-82
2022/09/17 07:08:27;;;;;;;9.10;1.17;;;;;;;17.16;71.62;99913.53;4972981;28;20089;-85
2022/09/17 07:10:55;;;;;;;10.35;1.52;;;;;;;16.87;71.96;99901.97;4993423;28;20073;-79
2022/09/17 07:13:22;;;;;;;6.78;1.50;;;;;;;16.78;72.16;99897.75;5010563;28;20054;-77
2022/09/17 07:15:57;;;;;;;3.30;1.23;;;;;;;16.02;70.68;99801.88;5010450;28;20136;-80
2022/09/17 07:18:25;;;;;;;5.70;1.02;;;;;;;16.76;70.02;99923.06;4993206;28;20077;-76
2022/09/17 07:20:56;;;;;;;6.60;1.75;;;;;;;16.95;70.08;100015.44;4993019;28;20148;-82
2022/09/17 07:23:25;;;;;;;3.67;1.30;;;;;;;16.85;69.28;100032.69;4992983;28;20081;-76
2022/09/17 07:25:54;;;;;;;3.30;1.50;;;;;;;16.17;70.05;99964.31;4992765;28;20088;-82
2022/09/17 07:28:23;;;;;;;4.82;1.50;;;;;;;16.80;69.78;100088.72;4993510;28;20104;-81
2022/09/17 07:30:50;;;;;;;5.38;1.50;;;;;;;16.79;70.99;100129.09;5010444;28;20057;-83
2022/09/17 07:33:24;;;;;;;6.22;1.70;;;;;;;15.83;70.91;100007.75;5002782;28;20274;-79
2022/09/17 07:35:56;;;;;;;9.15;1.60;;;;;;;16.47;70.47;100131.16;5012320;28;20045;-83
2022/09/17 07:38:22;;;;;;;;;;;;;;;16.94;71.26;100229.09;5030683;28;20075;-77
2022/09/17 07:41:07;;;;;;;10.35;1.25;;;;;;;16.94;71.36;100261.25;5028092;28;19967;-82
2022/09/17 07:43:38;;;;;;;10.80;1.83;;;;;;;16.91;72.06;100266.19;5010541;28;20049;-81
2022/09/17 07:46:07;;;;;;;13.10;2.03;;;;;;;16.24;71.37;100192.88;4993007;28;20078;-82
2022/09/17 07:48:36;;;;;;;6.35;1.90;;;;;;;16.75;71.98;100280.56;4998987;28;20042;-81
2022/09/17 07:51:04;;;;;;;9.43;1.85;;;;;;;16.23;73.63;100274.22;5013363;28;20058;-84
2022/09/17 07:53:31;;;;;;;8.65;1.77;;;;;;;16.01;73.37;100231.22;5012226;28;20288;-81
2022/09/17 07:55:59;;;;;;;5.45;1.50;;;;;;;16.11;72.40;100318.50;5012721;28;20049;-85
2022/09/17 07:58:32;;;;;;;7.78;1.77;;;;;;;15.83;72.58;100280.75;5012288;28;20497;-81
2022/09/17 08:01:03;;;;;;;7.78;1.70;;;;;;;16.44;73.22;100383.38;5029958;28;20199;-77
2022/09/17 08:03:30;;;;;;;4.80;1.85;;;;;;;16.57;73.29;100398.84;4990214;28;20078;-81
2022/09/17 08:06:02;;;;;;;5.03;1.58;;;;;;;16.72;73.22;100397.03;4990185;28;20140;-85
2022/09/17 08:08:32;;;;;;;10.18;2.30;;;;;;;16.86;72.81;100390.88;4989049;28;20418;-81
2022/09/17 08:11:04;;;;;;;3.70;1.52;;;;;;;16.22;72.04;100318.09;4990275;28;20228;-82
2022/09/17 08:13:38;;;;;;;6.45;1.50;;;;;;;16.47;73.67;100317.88;4989998;28;20062;-81
2022/09/17 08:16:08;;;;;;;12.48;1.63;;;;;;;16.52;73.19;100366.41;4988640;28;20054;-82
2022/09/17 08:18:38;;;;;;;3.83;1.25;;;;;;;16.66;74.62;100403.94;4988786;28;20050;-81
2022/09/17 08:21:08;;;;;;;3.78;1.50;;;;;;;16.49;74.04;100366.75;5002905;28;20046;-81
2022/09/17 08:23:46;;;;;;;6.50;1.80;;;;;;;16.12;74.27;100336.25;4988670;28;20497;-82
2022/09/17 08:26:22;;;;;;;3.17;1.75;;;;;;;16.71;73.94;100440.09;5003723;28;20586;-81
2022/09/17 08:28:55;;;;;;;2.65;1.55;;;;;;;15.20;73.87;100200.53;4982876;28;20126;-84
2022/09/17 08:31:25;;;;;;;8.63;1.90;;;;;;;15.24;75.39;100228.56;4969105;28;20471;-82
2022/09/17 08:33:52;;;;;;;7.05;1.50;;;;;;;16.71;73.81;100462.38;4969416;28;20089;-83
2022/09/17 08:36:20;;;;;;;4.70;1.95;;;;;;;16.83;73.13;100482.41;4969599;28;20366;-83
2022/09/17 08:38:48;;;;;;;5.95;1.80;;;;;;;16.55;73.88;100474.03;5002270;28;20102;-85
2022/09/17 08:41:24;;;;;;;5.50;1.70;;;;;;;16.99;72.50;100577.13;5008581;28;20092;-84
2022/09/17 08:44:06;;;;;;;3.63;1.42;;;;;;;16.60;72.79;100560.13;4998960;28;20112;-84
2022/09/17 08:46:45;;;;;;;;;;;;;;;16.83;71.61;100586.97;4996214;28;20066;-82
2022/09/17 08:49:35;;;;;;;5.15;1.27;;;;;;;16.82;73.19;100520.97;4983423;28;19926;-83
2022/09/17 08:52:23;;;;;;;3.22;1.30;;;;;;;16.97;71.58;100496.06;4970326;28;20588;-83
2022/09/17 08:54:59;;;;;;;3.55;1.50;;;;;;;16.87;71.39;100513.22;4968657;28;20138;-76
2022/09/17 08:57:40;;;;;;;6.07;1.45;;;;;;;16.45;71.79;100466.22;4968963;28;20054;-83
2022/09/17 09:00:16;;;;;;;4.20;1.50;;;;;;;15.16;72.73;100315.00;4984725;28;20399;-83
2022/09/17 09:03:11;;;;;;;3.50;1.50;;;;;;;16.78;73.05;100580.44;4996099;28;20632;-81
2022/09/17 09:05:51;;;;;;;3.33;1.70;;;;;;;16.26;72.13;100527.47;4987467;28;20498;-82
2022/09/17 09:08:40;;;;;;;6.47;1.88;;;;;;;16.43;72.60;100602.25;4987881;28;20132;-80
2022/09/17 09:11:15;;;;;;;11.25;1.83;;;;;;;16.51;73.38;100609.41;4988859;28;20050;-82
2022/09/17 09:13:47;;;;;;;7.88;1.85;;;;;;;16.59;72.89;100627.28;4989092;28;20062;-84
2022/09/17 09:16:22;;;;;;;7.95;1.60;;;;;;;16.60;73.26;100620.91;4988526;28;20172;-80
2022/09/17 09:19:12;;;;;;;4.88;1.58;;;;;;;16.39;72.50;100594.72;4996532;28;20113;-83
2022/09/17 09:22:03;;;;;;;4.85;1.67;;;;;;;16.59;71.08;100643.38;5009415;28;20481;-82
2022/09/17 09:25:10;;;;;;;7.47;1.73;;;;;;;16.58;73.38;100653.25;5006964;28;20058;-82
2022/09/17 09:27:56;;;;;;;5.63;1.40;;;;;;;16.66;72.58;100676.50;5008417;28;20490;-81
2022/09/17 09:30:24;;;;;;;4.18;1.17;;;;;;;16.22;70.96;100615.41;5023433;28;20565;-82
2022/09/17 09:33:01;;;;;;;5.97;1.42;;;;;;;16.66;70.73;100687.22;5007673;28;20053;-80
2022/09/17 09:35:34;;;;;;;3.42;1.33;;;;;;;16.45;70.80;100637.72;5009458;28;20057;-85
2022/09/17 09:38:21;;;;;;;4.63;1.48;;;;;;;16.56;69.51;100638.38;5023993;28;20064;-84
2022/09/17 09:41:06;;;;;;;7.03;1.48;;;;;;;16.71;70.53;100684.03;5023823;28;20057;-83
2022/09/17 09:43:42;;;;;;;4.38;1.63;;;;;;;16.74;71.21;100697.91;5007052;28;20494;-84
2022/09/17 09:46:44;;;;;;;3.35;1.40;;;;;;;16.76;70.64;100693.22;5009899;28;20042;-85
2022/09/17 09:49:13;;;;;;;;;;;;;;;16.76;71.68;100687.84;4999696;28;20078;-84
2022/09/17 09:52:17;;;;;;;4.82;1.40;;;;;;;16.79;72.15;100700.91;4987964;28;20016;-82
2022/09/17 09:54:59;;;;;;;3.75;1.23;;;;;;;16.87;71.51;100684.81;4986778;28;20413;-83
2022/09/17 09:57:41;;;;;;;5.30;1.73;;;;;;;17.04;70.42;100648.00;4987344;28;20132;-82
2022/09/17 10:00:29;;;;;;;6.82;1.77;;;;;;;16.94;72.49;100638.50;4986595;28;20501;-85
2022/09/17 10:03:20;;;;;;;4.05;1.48;;;;;;;17.03;71.06;100672.31;4998586;28;20291;-82
2022/09/17 10:05:53;;;;;;;7.40;1.75;;;;;;;17.11;69.66;100674.94;4995974;28;20078;-82
2022/09/17 10:08:20;;;;;;;3.95;1.40;;;;;;;17.06;69.35;100651.34;4990709;28;20061;-83
2022/09/17 10:11:23;;;;;;;9.32;1.98;;;;;;;16.92;70.81;100632.47;5007987;28;20170;-83
2022/09/17 10:13:49;;;;;;;5.15;1.63;;;;;;;16.56;71.79;100574.06;4990940;28;20104;-83
2022/09/17 10:16:17;;;;;;;2.88;1.50;;;;;;;16.05;69.88;100501.31;4990259;28;20054;-82
2022/09/17 10:18:52;;;;;;;7.20;1.48;;;;;;;17.04;71.68;100648.00;5007256;28;20464;-82
2022/09/17 10:21:36;;;;;;;7.97;1.70;;;;;;;17.13;68.18;100672.91;4989769;28;20053;-82
2022/09/17 10:24:12;;;;;;;7.13;1.65;;;;;;;16.65;68.86;100562.25;5020109;28;20113;-82
2022/09/17 10:26:46;;;;;;;4.00;1.30;;;;;;;17.41;68.11;100673.25;5018327;28;20052;-82
2022/09/17 10:29:17;;;;;;;5.68;1.30;;;;;;;17.13;68.37;100608.53;4989656;28;20136;-81
2022/09/17 10:31:49;;;;;;;5.55;1.50;;;;;;;17.54;68.09;100659.22;4989366;28;20145;-80
2022/09/17 10:34:22;;;;;;;3.30;1.73;;;;;;;17.43;68.04;100619.41;4989942;28;20099;-82
2022/09/17 10:36:51;;;;;;;5.18;1.80;;;;;;;17.64;67.59;100611.47;4994069;28;20479;-81
2022/09/17 10:39:43;;;;;;;5.50;1.70;;;;;;;17.56;69.30;100602.66;5009034;28;20049;-80
2022/09/17 10:42:09;;;;;;;3.08;1.95;;;;;;;17.59;68.73;100587.03;5024455;28;20053;-81
2022/09/17 10:44:37;;;;;;;6.57;1.40;;;;;;;17.49;68.96;100560.44;4989180;28;20064;-81
2022/09/17 10:47:12;;;;;;;3.70;1.55;;;;;;;17.51;69.17;100596.00;4989766;28;20081;-80
2022/09/17 10:49:48;;;;;;;4.10;1.42;;;;;;;17.46;67.21;100562.66;5003642;28;20049;-80
2022/09/17 10:52:33;;;;;;;3.90;1.00;;;;;;;17.64;66.28;100619.50;5008004;28;20582;-78
2022/09/17 10:55:22;;;;;;;2.47;1.00;;;;;;;17.74;66.90;100621.94;5009377;28;20295;-77
2022/09/17 10:58:08;;;;;;;7.60;1.70;;;;;;;17.70;66.68;100618.81;5009386;28;20052;-78
2022/09/17 11:00:48;;;;;;;4.82;1.50;;;;;;;17.21;66.21;100530.69;5009709;28;20041;-79
2022/09/17 11:03:39;;;;;;;9.88;1.98;;;;;;;17.63;68.53;100620.53;4971848;28;20521;-79
2022/09/17 11:06:14;;;;;;;5.22;1.75;;;;;;;17.29;67.12;100549.41;4970043;28;20053;-78
2022/09/17 11:09:02;;;;;;;7.40;1.77;;;;;;;17.85;66.47;100596.53;4987642;28;20050;-80
2022/09/17 11:11:45;;;;;;;7.03;2.03;;;;;;;17.71;68.01;100595.47;5001940;28;20519;-78
2022/09/17 11:14:46;;;;;;;6.57;1.90;;;;;;;17.75;68.38;100591.41;4974343;28;20061;-79
2022/09/17 11:17:22;;;;;;;6.30;1.50;;;;;;;17.88;66.98;100582.72;4966230;28;20058;-80
2022/09/17 11:20:04;;;;;;;2.80;1.20;;;;;;;17.18;67.57;100471.19;4981983;28;20046;-78
2022/09/17 11:23:21;;;;;;;4.07;1.40;;;;;;;17.70;67.23;100573.16;4986362;28;20046;-81
2022/09/17 11:25:58;;;;;;;3.00;1.17;;;;;;;17.77;67.30;100572.41;4981662;28;20061;-77
2022/09/17 11:29:04;;;;;;;8.13;2.08;;;;;;;17.81;67.03;100579.94;4977598;28;20046;-80
2022/09/17 11:31:40;;;;;;;2.85;1.33;;;;;;;17.43;66.33;100504.00;4972999;28;20071;-79
2022/09/17 11:34:34;;;;;;;2.75;1.50;;;;;;;18.00;65.84;100572.38;4968263;28;20510;-80
2022/09/17 11:37:19;;;;;;;7.43;1.45;;;;;;;18.10;66.11;100568.38;4972914;28;20078;-79
2022/09/17 11:39:53;;;;;;;4.47;1.17;;;;;;;18.30;64.52;100575.84;4986010;28;20046;-77
2022/09/17 11:42:27;;;;;;;3.58;1.23;;;;;;;18.21;65.06;100574.31;4983404;28;20047;-81
2022/09/17 11:45:01;;;;;;;5.80;1.27;;;;;;;18.63;63.78;100580.81;4973392;28;20054;-77
2022/09/17 11:47:33;;;;;;;3.63;1.30;;;;;;;19.20;61.57;100588.03;4982885;28;20047;-80
2022/09/17 11:50:20;;;;;;;9.07;1.45;;;;;;;19.59;61.71;100589.41;5018719;28;20038;-81
2022/09/17 11:53:18;;;;;;;5.90;1.52;;;;;;;20.04;60.37;100584.53;4999389;28;20053;-80
2022/09/17 11:56:01;;;;;;;2.67;1.08;;;;;;;20.36;55.11;100563.31;4983637;28;20536;-80
2022/09/17 11:58:47;;;;;;;2.05;1.10;;;;;;;20.56;57.67;100579.59;4990819;28;20114;-80
2022/09/17 12:01:59;;;;;;;6.25;0.93;;;;;;;20.93;55.47;100570.16;5006061;28;20050;-80